Time;durP1;ratioP1;P1;durP2;ratioP2;P2;SDS_P1;SDS_P2;PMS_P1;PMS_P2;Temp;Humidity;BMP_temperature;BMP_pressure;BME280_temperature;BME280_humidity;BME280_pressure;Samples;Min_cycle;Max_cycle;Signal;HPM_P1;HPM_P2
2022/06/08 00:00:16;;;;;;;;;2.40;1.40;;;;;;;;5035170;28;9017;-80
2022/06/08 00:02:45;;;;;;;;;2.00;2.00;;;;;;;;5032458;28;8901;-81
2022/06/08 00:05:13;;;;;;;;;3.00;1.40;;;;;;;;5035717;28;8893;-81
2022/06/08 00:07:40;;;;;;;;;2.20;2.20;;;;;;;;5033032;28;9004;-81
2022/06/08 00:10:08;;;;;;;;;3.40;2.00;;;;;;;;5028900;28;8880;-82
2022/06/08 00:12:37;;;;;;;;;3.20;1.40;;;;;;;;5035877;28;8895;-81
2022/06/08 00:15:06;;;;;;;;;2.00;2.00;;;;;;;;5033000;28;8852;-82
2022/06/08 00:17:34;;;;;;;;;6.80;2.80;;;;;;;;5033218;28;8938;-82
2022/06/08 00:20:01;;;;;;;;;2.00;2.00;;;;;;;;5038752;28;8888;-82
2022/06/08 00:22:28;;;;;;;;;2.00;2.00;;;;;;;;5036999;28;9023;-81
2022/06/08 00:24:56;;;;;;;;;0.00;0.00;;;;;;;;5039825;28;8881;-82
2022/06/08 00:27:24;;;;;;;;;2.60;2.60;;;;;;;;5032552;28;8998;-82
2022/06/08 00:29:52;;;;;;;;;3.00;3.00;;;;;;;;5029322;28;9047;-81
2022/06/08 00:32:20;;;;;;;;;4.20;3.00;;;;;;;;5034778;28;8940;-81
2022/06/08 00:34:47;;;;;;;;;3.40;3.40;;;;;;;;5033459;28;9022;-82
2022/06/08 00:37:14;;;;;;;;;3.00;3.00;;;;;;;;5035099;28;8984;-82
2022/06/08 00:39:42;;;;;;;;;5.20;4.20;;;;;;;;5037393;28;9007;-81
2022/06/08 00:42:11;;;;;;;;;3.00;3.00;;;;;;;;5036217;28;8975;-81
2022/06/08 00:44:43;;;;;;;;;2.00;2.00;;;;;;;;5032051;28;8886;-81
2022/06/08 00:47:14;;;;;;;;;2.60;2.60;;;;;;;;5032352;28;9999;-82
2022/06/08 00:49:51;;;;;;;;;2.00;2.00;;;;;;;;5036004;28;8879;-82
2022/06/08 00:52:19;;;;;;;;;4.40;2.20;;;;;;;;5037187;28;10260;-81
2022/06/08 00:54:49;;;;;;;;;2.00;2.00;;;;;;;;5032054;28;8878;-81
2022/06/08 00:57:19;;;;;;;;;3.00;3.00;;;;;;;;5032465;28;9631;-82
2022/06/08 00:59:51;;;;;;;;;2.00;2.00;;;;;;;;5036110;28;8861;-83
2022/06/08 01:02:21;;;;;;;;;3.00;1.60;;;;;;;;5030096;28;8845;-82
2022/06/08 01:04:48;;;;;;;;;3.00;1.00;;;;;;;;5033048;28;8891;-81
2022/06/08 01:07:19;;;;;;;;;3.00;2.00;;;;;;;;5036528;28;8836;-82
2022/06/08 01:09:47;;;;;;;;;3.00;1.20;;;;;;;;5034186;28;8883;-82
2022/06/08 01:12:16;;;;;;;;;3.20;2.00;;;;;;;;5033281;28;9679;-82
2022/06/08 01:14:44;;;;;;;;;3.00;1.50;;;;;;;;5033180;28;9628;-81
2022/06/08 01:17:13;;;;;;;;;1.00;1.00;;;;;;;;5030643;28;8885;-81
2022/06/08 01:19:45;;;;;;;;;1.00;1.00;;;;;;;;5037917;28;8865;-82
2022/06/08 01:22:17;;;;;;;;;4.00;2.00;;;;;;;;5030709;28;8901;-82
2022/06/08 01:24:46;;;;;;;;;3.00;2.25;;;;;;;;5032897;28;8863;-81
2022/06/08 01:27:26;;;;;;;;;2.00;2.00;;;;;;;;5031471;28;8884;-81
2022/06/08 01:30:16;;;;;;;;;2.00;2.00;;;;;;;;5031611;28;8876;-81
2022/06/08 01:33:13;;;;;;;;;2.80;1.00;;;;;;;;5029549;28;9200;-81
2022/06/08 01:35:47;;;;;;;;;2.00;2.00;;;;;;;;5030896;28;8871;-80
2022/06/08 01:38:20;;;;;;;;;2.00;2.00;;;;;;;;5034332;28;8909;-81
2022/06/08 01:41:11;;;;;;;;;3.25;2.00;;;;;;;;5031197;28;8963;-80
2022/06/08 01:43:48;;;;;;;;;2.25;2.00;;;;;;;;5031235;28;8875;-79
2022/06/08 01:46:21;;;;;;;;;4.50;2.00;;;;;;;;5029778;28;8887;-80
2022/06/08 01:49:07;;;;;;;;;3.50;2.00;;;;;;;;5036968;28;8855;-80
2022/06/08 01:52:02;;;;;;;;;1.75;1.75;;;;;;;;5030577;28;8849;-81
2022/06/08 01:54:42;;;;;;;;;3.75;2.25;;;;;;;;5023242;28;9671;-81
2022/06/08 01:57:16;;;;;;;;;2.25;2.25;;;;;;;;5033356;28;8884;-82
2022/06/08 01:59:52;;;;;;;;;2.25;2.25;;;;;;;;5038728;28;8866;-81
2022/06/08 02:02:28;;;;;;;;;3.00;3.00;;;;;;;;5033866;28;8849;-80
2022/06/08 02:04:58;;;;;;;;;3.25;2.25;;;;;;;;5031150;28;8875;-81
2022/06/08 02:07:33;;;;;;;;;2.00;2.00;;;;;;;;5029426;28;8907;-80
2022/06/08 02:10:07;;;;;;;;;2.00;2.00;;;;;;;;5033067;28;8889;-80
2022/06/08 02:12:37;;;;;;;;;4.00;2.50;;;;;;;;5033912;28;8863;-80
2022/06/08 02:15:10;;;;;;;;;3.75;3.50;;;;;;;;5033560;28;8976;-80
2022/06/08 02:17:41;;;;;;;;;4.00;2.25;;;;;;;;5032585;28;8871;-81
2022/06/08 02:20:12;;;;;;;;;2.50;2.00;;;;;;;;5032682;28;9632;-80
2022/06/08 02:22:43;;;;;;;;;3.50;2.25;;;;;;;;5027619;28;8881;-80
2022/06/08 02:25:16;;;;;;;;;1.00;1.00;;;;;;;;5029142;28;8903;-80
2022/06/08 02:27:47;;;;;;;;;3.75;2.00;;;;;;;;5034069;28;9001;-80
2022/06/08 02:30:17;;;;;;;;;1.75;1.75;;;;;;;;5030145;28;8889;-81
2022/06/08 02:35:36;;;;;;;;;3.00;2.50;;;;;;;;5034194;28;8849;-81
2022/06/08 02:38:09;;;;;;;;;1.50;1.50;;;;;;;;5031849;28;8875;-81
2022/06/08 02:40:46;;;;;;;;;3.00;1.00;;;;;;;;5028612;28;8874;-82
2022/06/08 02:43:18;;;;;;;;;3.25;2.25;;;;;;;;5030305;28;8874;-81
2022/06/08 02:45:46;;;;;;;;;3.75;2.50;;;;;;;;5030518;28;8869;-81
2022/06/08 02:48:15;;;;;;;;;4.00;3.00;;;;;;;;5033736;28;8994;-80
2022/06/08 02:50:51;;;;;;;;;2.50;2.00;;;;;;;;5028785;28;8861;-81
2022/06/08 02:53:54;;;;;;;;;2.00;2.00;;;;;;;;5028416;28;8851;-81
2022/06/08 02:56:43;;;;;;;;;4.75;2.25;;;;;;;;5030578;28;8869;-80
2022/06/08 02:59:15;;;;;;;;;2.00;2.00;;;;;;;;5029428;28;8947;-82
2022/06/08 03:01:47;;;;;;;;;3.25;3.25;;;;;;;;5030719;28;8851;-82
2022/06/08 03:04:19;;;;;;;;;3.75;3.75;;;;;;;;5033360;28;8871;-83
2022/06/08 03:06:52;;;;;;;;;2.00;2.00;;;;;;;;5025955;28;9600;-82
2022/06/08 03:09:20;;;;;;;;;4.50;3.25;;;;;;;;5032376;28;9358;-82
2022/06/08 03:11:55;;;;;;;;;2.00;2.00;;;;;;;;5029864;28;8855;-82
2022/06/08 03:14:22;;;;;;;;;4.00;2.75;;;;;;;;5029799;28;8870;-82
2022/06/08 03:16:57;;;;;;;;;2.25;2.00;;;;;;;;5033680;28;8893;-81
2022/06/08 03:19:25;;;;;;;;;2.00;2.00;;;;;;;;5032643;28;9012;-81
2022/06/08 03:21:54;;;;;;;;;3.75;3.50;;;;;;;;5035202;28;8993;-81
2022/06/08 03:24:22;;;;;;;;;4.00;2.00;;;;;;;;5035514;28;9636;-80
2022/06/08 03:26:53;;;;;;;;;4.75;4.00;;;;;;;;5028187;28;8902;-81
2022/06/08 03:29:20;;;;;;;;;2.00;2.00;;;;;;;;5031722;28;8894;-81
2022/06/08 03:31:49;;;;;;;;;3.00;3.00;;;;;;;;5027853;28;8904;-81
2022/06/08 03:34:17;;;;;;;;;3.00;3.00;;;;;;;;5031013;28;8859;-81
2022/06/08 03:36:45;;;;;;;;;4.00;2.75;;;;;;;;5033479;28;9620;-82
2022/06/08 03:39:12;;;;;;;;;4.00;2.00;;;;;;;;5032150;28;8889;-82
2022/06/08 03:41:40;;;;;;;;;4.00;4.00;;;;;;;;5027353;28;10357;-81
2022/06/08 03:44:09;;;;;;;;;3.00;3.00;;;;;;;;5037436;28;9002;-82
2022/06/08 03:46:40;;;;;;;;;4.00;2.00;;;;;;;;5027867;28;8915;-82
2022/06/08 03:49:08;;;;;;;;;3.25;3.00;;;;;;;;5037349;28;8866;-83
2022/06/08 03:51:37;;;;;;;;;2.25;1.75;;;;;;;;5034339;28;8875;-84
2022/06/08 03:54:07;;;;;;;;;2.75;2.75;;;;;;;;5036492;28;8890;-85
2022/06/08 03:56:35;;;;;;;;;3.50;3.25;;;;;;;;5032228;28;8881;-84
2022/06/08 03:59:03;;;;;;;;;2.00;2.00;;;;;;;;5034519;28;8891;-84
2022/06/08 04:01:32;;;;;;;;;3.00;3.00;;;;;;;;5029064;28;8827;-82
2022/06/08 04:04:00;;;;;;;;;2.00;1.75;;;;;;;;5028329;28;8859;-83
2022/06/08 04:06:27;;;;;;;;;3.00;3.00;;;;;;;;5030789;28;8873;-82
2022/06/08 04:08:55;;;;;;;;;2.00;2.00;;;;;;;;5016205;28;8891;-82
2022/06/08 04:11:22;;;;;;;;;3.00;3.00;;;;;;;;5031687;28;8867;-82
2022/06/08 04:13:50;;;;;;;;;5.00;2.75;;;;;;;;5035396;28;8855;-83
2022/06/08 04:16:19;;;;;;;;;4.00;3.00;;;;;;;;5034641;28;9187;-81
2022/06/08 04:18:48;;;;;;;;;2.75;2.50;;;;;;;;5034826;28;8885;-85
2022/06/08 04:21:16;;;;;;;;;4.50;3.00;;;;;;;;5028552;28;8900;-83
2022/06/08 04:23:46;;;;;;;;;2.75;2.75;;;;;;;;5031465;28;9001;-84
2022/06/08 04:26:15;;;;;;;;;2.00;2.00;;;;;;;;5035035;28;8871;-84
2022/06/08 04:28:45;;;;;;;;;4.00;2.25;;;;;;;;5031024;28;8879;-84
2022/06/08 04:31:12;;;;;;;;;3.75;3.75;;;;;;;;5032217;28;8795;-84
2022/06/08 04:33:40;;;;;;;;;4.00;2.25;;;;;;;;5035777;28;8902;-85
2022/06/08 04:36:09;;;;;;;;;2.75;2.75;;;;;;;;5032737;28;8975;-84
2022/06/08 04:38:37;;;;;;;;;2.00;2.00;;;;;;;;5032888;28;8890;-83
2022/06/08 04:41:06;;;;;;;;;2.50;2.00;;;;;;;;5038923;28;8855;-83
2022/06/08 04:43:33;;;;;;;;;3.00;3.00;;;;;;;;5033851;28;8870;-83
2022/06/08 04:46:01;;;;;;;;;4.00;2.25;;;;;;;;5037454;28;8902;-83
2022/06/08 04:48:28;;;;;;;;;3.25;3.25;;;;;;;;5036421;28;8866;-83
2022/06/08 04:50:56;;;;;;;;;0.75;0.75;;;;;;;;5031832;28;8979;-82
2022/06/08 04:53:25;;;;;;;;;4.25;4.25;;;;;;;;5033891;28;8867;-84
2022/06/08 04:55:52;;;;;;;;;3.50;3.50;;;;;;;;5035740;28;8887;-84
2022/06/08 04:58:26;;;;;;;;;2.00;2.00;;;;;;;;5033281;28;8890;-86
2022/06/08 05:00:54;;;;;;;;;3.75;2.00;;;;;;;;5030515;28;8816;-88
2022/06/08 05:03:21;;;;;;;;;2.75;2.75;;;;;;;;5037093;28;8878;-89
2022/06/08 05:05:49;;;;;;;;;3.00;1.75;;;;;;;;5032135;28;8877;-89
2022/06/08 05:08:17;;;;;;;;;2.75;2.75;;;;;;;;5035041;28;8962;-88
2022/06/08 05:10:46;;;;;;;;;3.25;3.25;;;;;;;;5037739;28;8862;-89
2022/06/08 05:13:14;;;;;;;;;3.50;2.25;;;;;;;;5030837;28;8948;-89
2022/06/08 05:15:43;;;;;;;;;2.50;1.75;;;;;;;;5029550;28;9712;-90
2022/06/08 05:18:12;;;;;;;;;2.00;2.00;;;;;;;;5031955;28;8872;-89
2022/06/08 05:20:41;;;;;;;;;1.50;1.50;;;;;;;;5033877;28;8931;-89
2022/06/08 05:23:13;;;;;;;;;1.25;1.25;;;;;;;;5032540;28;8891;-89
2022/06/08 05:25:41;;;;;;;;;4.00;4.00;;;;;;;;5033150;28;8978;-89
2022/06/08 05:28:11;;;;;;;;;3.25;2.00;;;;;;;;5031246;28;8879;-91
2022/06/08 05:30:39;;;;;;;;;2.00;2.00;;;;;;;;5028900;28;8895;-87
2022/06/08 05:33:08;;;;;;;;;2.25;2.25;;;;;;;;5034479;28;8866;-89
2022/06/08 05:35:37;;;;;;;;;2.00;2.00;;;;;;;;5035194;28;8863;-88
2022/06/08 05:38:06;;;;;;;;;2.75;2.75;;;;;;;;5035459;28;8949;-90
2022/06/08 05:40:36;;;;;;;;;3.50;3.50;;;;;;;;5039283;28;8905;-88
2022/06/08 05:43:05;;;;;;;;;3.75;3.25;;;;;;;;5031782;28;8893;-88
2022/06/08 05:45:35;;;;;;;;;3.00;3.00;;;;;;;;5036295;28;8981;-87
2022/06/08 05:48:04;;;;;;;;;3.25;3.25;;;;;;;;5031189;28;8873;-86
2022/06/08 05:50:32;;;;;;;;;4.75;3.00;;;;;;;;5030996;28;8838;-88
2022/06/08 05:52:59;;;;;;;;;4.75;4.75;;;;;;;;5038018;28;8883;-87
2022/06/08 05:55:27;;;;;;;;;2.75;2.75;;;;;;;;5028849;28;8873;-78
2022/06/08 05:57:55;;;;;;;;;3.00;3.00;;;;;;;;5035764;28;8896;-77
2022/06/08 06:00:25;;;;;;;;;3.50;2.00;;;;;;;;5034919;28;8991;-77
2022/06/08 06:02:54;;;;;;;;;2.00;2.00;;;;;;;;5034555;28;9670;-77
2022/06/08 06:05:25;;;;;;;;;2.25;2.00;;;;;;;;5032586;28;8874;-76
2022/06/08 06:07:55;;;;;;;;;2.25;2.25;;;;;;;;5035485;28;8859;-77
2022/06/08 06:10:23;;;;;;;;;4.25;2.25;;;;;;;;5032008;28;8875;-78
2022/06/08 06:12:54;;;;;;;;;2.25;2.25;;;;;;;;5030626;28;8867;-77
2022/06/08 06:15:23;;;;;;;;;2.00;2.00;;;;;;;;5035524;28;9775;-76
2022/06/08 06:17:51;;;;;;;;;2.00;2.00;;;;;;;;5036772;28;8823;-78
2022/06/08 06:20:19;;;;;;;;;1.25;1.25;;;;;;;;5036021;28;8867;-76
2022/06/08 06:22:47;;;;;;;;;3.75;3.75;;;;;;;;5037341;28;8956;-76
2022/06/08 06:25:14;;;;;;;;;2.00;2.00;;;;;;;;5039130;28;8871;-75
2022/06/08 06:27:42;;;;;;;;;4.00;2.00;;;;;;;;5032604;28;8897;-76
2022/06/08 06:30:11;;;;;;;;;3.50;3.00;;;;;;;;5033891;28;8865;-76
2022/06/08 06:32:39;;;;;;;;;4.25;3.00;;;;;;;;5036355;28;8873;-78
2022/06/08 06:35:09;;;;;;;;;4.00;3.75;;;;;;;;5033145;28;8863;-78
2022/06/08 06:37:38;;;;;;;;;2.25;2.00;;;;;;;;5029575;28;8873;-77
2022/06/08 06:40:07;;;;;;;;;3.75;3.75;;;;;;;;5032189;28;9035;-76
2022/06/08 06:42:35;;;;;;;;;2.00;2.00;;;;;;;;5030121;28;8889;-80
2022/06/08 06:45:03;;;;;;;;;4.25;3.00;;;;;;;;5037837;28;8897;-78
2022/06/08 06:47:30;;;;;;;;;4.00;2.50;;;;;;;;5034178;28;9572;-79
2022/06/08 06:49:57;;;;;;;;;4.00;2.00;;;;;;;;5040035;28;8863;-79
2022/06/08 06:52:25;;;;;;;;;3.00;3.00;;;;;;;;5038820;28;8891;-76
2022/06/08 06:54:54;;;;;;;;;2.00;2.00;;;;;;;;5032505;28;8855;-80
2022/06/08 06:57:21;;;;;;;;;1.00;1.00;;;;;;;;5031279;28;8875;-78
2022/06/08 06:59:50;;;;;;;;;1.50;1.50;;;;;;;;5034142;28;8991;-78
2022/06/08 07:02:19;;;;;;;;;5.00;1.25;;;;;;;;5032509;28;8845;-81
2022/06/08 07:04:46;;;;;;;;;2.00;2.00;;;;;;;;5038061;28;9439;-83
2022/06/08 07:07:14;;;;;;;;;2.00;2.00;;;;;;;;5034414;28;8859;-81
2022/06/08 07:09:41;;;;;;;;;2.00;2.00;;;;;;;;5036090;28;8851;-79
2022/06/08 07:12:13;;;;;;;;;2.75;2.00;;;;;;;;5037343;28;8855;-82
2022/06/08 07:14:41;;;;;;;;;1.00;1.00;;;;;;;;5033759;28;8990;-77
2022/06/08 07:17:09;;;;;;;;;1.25;1.25;;;;;;;;5033070;28;8847;-76
2022/06/08 07:19:36;;;;;;;;;3.75;2.50;;;;;;;;5036673;28;8857;-72
2022/06/08 07:22:04;;;;;;;;;2.00;2.00;;;;;;;;5031365;28;8866;-72
2022/06/08 07:24:33;;;;;;;;;1.25;1.25;;;;;;;;5025042;28;9024;-72
2022/06/08 07:27:01;;;;;;;;;2.25;2.00;;;;;;;;5033917;28;8879;-73
2022/06/08 07:29:30;;;;;;;;;1.75;1.75;;;;;;;;5031604;28;8969;-73
2022/06/08 07:31:58;;;;;;;;;3.75;1.75;;;;;;;;5032454;28;8831;-72
2022/06/08 07:34:26;;;;;;;;;1.00;1.00;;;;;;;;5035035;28;8855;-71
2022/06/08 07:36:53;;;;;;;;;4.50;2.25;;;;;;;;5031297;28;8855;-72
2022/06/08 07:39:21;;;;;;;;;2.25;2.25;;;;;;;;5030073;28;8861;-71
2022/06/08 07:41:49;;;;;;;;;2.00;2.00;;;;;;;;5027565;28;8912;-72
2022/06/08 07:44:17;;;;;;;;;2.25;2.25;;;;;;;;5030470;28;8863;-72
2022/06/08 07:46:46;;;;;;;;;1.00;1.00;;;;;;;;5033104;28;9602;-71
2022/06/08 07:52:00;;;;;;;;;1.50;1.00;;;;;;;;5031420;28;8843;-73
2022/06/08 07:54:30;;;;;;;;;1.25;1.25;;;;;;;;5034335;28;8876;-72
2022/06/08 07:56:58;;;;;;;;;2.00;2.00;;;;;;;;5031311;28;8870;-71
2022/06/08 07:59:30;;;;;;;;;3.00;1.75;;;;;;;;5030111;28;8905;-72
2022/06/08 08:01:59;;;;;;;;;1.00;1.00;;;;;;;;5030567;28;8823;-72
2022/06/08 08:04:27;;;;;;;;;1.00;1.00;;;;;;;;5032193;28;8973;-71
2022/06/08 08:06:54;;;;;;;;;1.00;1.00;;;;;;;;5028861;28;8893;-72
2022/06/08 08:09:22;;;;;;;;;1.00;1.00;;;;;;;;5031976;28;8843;-71
2022/06/08 08:11:51;;;;;;;;;2.50;1.25;;;;;;;;5034340;28;9598;-73
2022/06/08 08:14:19;;;;;;;;;1.00;1.00;;;;;;;;5039010;28;8932;-72
2022/06/08 08:16:47;;;;;;;;;1.00;1.00;;;;;;;;5027503;28;8901;-73
2022/06/08 08:19:18;;;;;;;;;1.00;1.00;;;;;;;;5037129;28;8899;-72
2022/06/08 08:21:45;;;;;;;;;1.00;1.00;;;;;;;;5035172;28;9967;-73
2022/06/08 08:24:12;;;;;;;;;2.00;2.00;;;;;;;;5038909;28;8871;-72
2022/06/08 08:26:40;;;;;;;;;3.00;1.25;;;;;;;;5034712;28;8901;-72
2022/06/08 08:29:08;;;;;;;;;1.25;1.25;;;;;;;;5035855;28;8835;-73
2022/06/08 08:31:37;;;;;;;;;1.00;1.00;;;;;;;;5031533;28;8821;-73
2022/06/08 08:34:05;;;;;;;;;1.00;1.00;;;;;;;;5038546;28;8889;-73
2022/06/08 08:36:34;;;;;;;;;1.00;1.00;;;;;;;;5039877;28;8869;-73
2022/06/08 08:39:04;;;;;;;;;2.00;2.00;;;;;;;;5039125;28;8905;-73
2022/06/08 08:44:31;;;;;;;;;0.75;0.75;;;;;;;;5037270;28;8831;-72
2022/06/08 08:47:09;;;;;;;;;1.75;1.75;;;;;;;;5033214;28;8949;-74
2022/06/08 08:49:37;;;;;;;;;1.50;1.50;;;;;;;;5031464;28;8900;-74
2022/06/08 08:52:15;;;;;;;;;1.00;1.00;;;;;;;;5035598;28;9013;-73
2022/06/08 08:54:52;;;;;;;;;2.00;2.00;;;;;;;;5041252;28;8882;-73
2022/06/08 08:57:22;;;;;;;;;1.00;1.00;;;;;;;;5037833;28;8878;-74
2022/06/08 08:59:50;;;;;;;;;1.00;1.00;;;;;;;;5038248;28;8894;-73
2022/06/08 09:05:03;;;;;;;;;1.00;1.00;;;;;;;;5030366;28;8894;-72
2022/06/08 09:07:32;;;;;;;;;1.50;1.50;;;;;;;;5034211;28;8866;-73
2022/06/08 09:09:59;;;;;;;;;1.00;1.00;;;;;;;;5039257;28;8850;-73
2022/06/08 09:12:26;;;;;;;;;0.00;0.00;;;;;;;;5038676;28;8887;-73
2022/06/08 09:14:57;;;;;;;;;1.00;1.00;;;;;;;;5037508;28;8870;-73
2022/06/08 09:17:33;;;;;;;;;0.75;0.75;;;;;;;;5032892;28;8940;-73
2022/06/08 09:20:03;;;;;;;;;0.50;0.50;;;;;;;;5033279;28;8890;-74
2022/06/08 09:22:33;;;;;;;;;0.75;0.75;;;;;;;;5035730;28;8897;-72
2022/06/08 09:25:03;;;;;;;;;0.00;0.00;;;;;;;;5037117;28;8941;-73
2022/06/08 09:27:33;;;;;;;;;0.00;0.00;;;;;;;;5036935;28;9795;-74
2022/06/08 09:30:19;;;;;;;;;0.00;0.00;;;;;;;;5036692;28;8993;-72
2022/06/08 09:32:50;;;;;;;;;2.00;0.00;;;;;;;;5037503;28;8818;-73
2022/06/08 09:35:23;;;;;;;;;0.00;0.00;;;;;;;;5038595;28;8863;-74
2022/06/08 09:37:54;;;;;;;;;0.00;0.00;;;;;;;;5040887;28;8887;-74
2022/06/08 09:40:40;;;;;;;;;0.00;0.00;;;;;;;;5035680;28;8961;-74
2022/06/08 09:43:27;;;;;;;;;0.00;0.00;;;;;;;;5037192;28;8853;-73
2022/06/08 09:45:56;;;;;;;;;0.50;0.50;;;;;;;;5038695;28;8846;-72
2022/06/08 09:51:51;;;;;;;;;1.00;1.00;;;;;;;;5037788;28;9381;-73
2022/06/08 09:54:30;;;;;;;;;1.00;1.00;;;;;;;;5025597;28;8855;-73
2022/06/08 09:57:25;;;;;;;;;1.00;1.00;;;;;;;;5034629;28;10045;-73
2022/06/08 10:00:08;;;;;;;;;1.00;1.00;;;;;;;;5011037;28;8882;-74
2022/06/08 10:02:44;;;;;;;;;2.00;2.00;;;;;;;;5035769;28;8842;-73
2022/06/08 10:05:23;;;;;;;;;21.50;20.75;;;;;;;;5037753;28;8890;-74
2022/06/08 10:08:02;;;;;;;;;32.50;29.25;;;;;;;;5038459;28;8908;-71
2022/06/08 10:10:35;;;;;;;;;25.00;22.50;;;;;;;;5032920;28;8859;-73
2022/06/08 10:13:05;;;;;;;;;19.75;19.25;;;;;;;;5037303;28;8905;-74
2022/06/08 10:15:36;;;;;;;;;141.00;134.75;;;;;;;;5033744;28;9894;-74
2022/06/08 10:18:15;;;;;;;;;20.00;18.25;;;;;;;;5032225;28;10647;-70
2022/06/08 10:20:47;;;;;;;;;4.40;4.40;;;;;;;;5036592;28;8901;-74
2022/06/08 10:23:25;;;;;;;;;6.60;5.60;;;;;;;;5032280;28;8859;-75
2022/06/08 10:25:59;;;;;;;;;1.20;1.20;;;;;;;;5038406;28;8854;-72
2022/06/08 10:28:30;;;;;;;;;1.20;1.20;;;;;;;;5034625;28;8851;-71
2022/06/08 10:31:01;;;;;;;;;1.60;1.60;;;;;;;;5035718;28;9369;-74
2022/06/08 10:33:35;;;;;;;;;1.00;1.00;;;;;;;;5037062;28;8877;-74
2022/06/08 10:36:04;;;;;;;;;2.00;2.00;;;;;;;;5029508;28;9644;-75
2022/06/08 10:38:33;;;;;;;;;1.00;1.00;;;;;;;;5035721;28;8857;-74
2022/06/08 10:44:06;;;;;;;;;2.00;2.00;;;;;;;;5034871;28;8830;-73
2022/06/08 10:46:41;;;;;;;;;1.40;1.40;;;;;;;;5030450;28;8875;-72
2022/06/08 10:49:20;;;;;;;;;1.80;1.80;;;;;;;;5034743;28;8859;-72
2022/06/08 10:52:14;;;;;;;;;3.00;3.00;;;;;;;;5037751;28;9624;-73
2022/06/08 10:54:53;;;;;;;;;2.00;2.00;;;;;;;;5040216;28;8939;-74
2022/06/08 10:57:47;;;;;;;;;1.00;1.00;;;;;;;;5033878;28;8997;-74
2022/06/08 11:00:29;;;;;;;;;1.00;1.00;;;;;;;;5028712;28;8905;-76
2022/06/08 11:03:02;;;;;;;;;2.00;2.00;;;;;;;;5028042;28;9786;-73
2022/06/08 11:05:34;;;;;;;;;1.40;1.40;;;;;;;;5035869;28;8894;-73
2022/06/08 11:08:17;;;;;;;;;2.00;2.00;;;;;;;;5032596;28;8858;-72
2022/06/08 11:11:03;;;;;;;;;5.20;4.00;;;;;;;;5034592;28;8874;-73
2022/06/08 11:13:39;;;;;;;;;1.40;1.20;;;;;;;;5033544;28;8897;-73
2022/06/08 11:16:15;;;;;;;;;2.40;2.40;;;;;;;;5029777;28;10485;-74
2022/06/08 11:18:46;;;;;;;;;1.00;1.00;;;;;;;;5031751;28;8893;-74
2022/06/08 11:21:42;;;;;;;;;2.00;2.00;;;;;;;;5035714;28;8851;-74
2022/06/08 11:24:21;;;;;;;;;1.40;1.40;;;;;;;;5029057;28;8870;-72
2022/06/08 11:26:55;;;;;;;;;2.00;2.00;;;;;;;;5034237;28;8913;-72
2022/06/08 11:29:49;;;;;;;;;3.80;3.80;;;;;;;;5034246;28;8877;-73
2022/06/08 11:32:42;;;;;;;;;2.80;2.80;;;;;;;;5031172;28;8881;-73
2022/06/08 11:35:36;;;;;;;;;1.00;1.00;;;;;;;;5034812;28;8871;-73
2022/06/08 11:38:16;;;;;;;;;3.20;2.80;;;;;;;;5034132;28;8870;-72
2022/06/08 11:40:44;;;;;;;;;4.00;2.40;;;;;;;;5031756;28;8851;-74
2022/06/08 11:43:28;;;;;;;;;1.40;1.20;;;;;;;;5037412;28;8965;-73
2022/06/08 11:45:58;;;;;;;;;2.00;2.00;;;;;;;;5031247;28;8881;-73
2022/06/08 11:48:28;;;;;;;;;2.20;2.20;;;;;;;;5035420;28;8894;-73
2022/06/08 11:50:58;;;;;;;;;1.00;1.00;;;;;;;;5035591;28;8846;-74
2022/06/08 11:53:29;;;;;;;;;3.20;2.00;;;;;;;;5036408;28;8875;-73
2022/06/08 11:56:09;;;;;;;;;2.40;2.00;;;;;;;;5039837;28;8859;-73
2022/06/08 11:58:37;;;;;;;;;3.00;2.00;;;;;;;;5033501;28;8902;-73
2022/06/08 12:01:11;;;;;;;;;4.00;2.00;;;;;;;;5028717;28;8806;-74
2022/06/08 12:03:42;;;;;;;;;2.60;2.60;;;;;;;;5032110;28;8851;-74
2022/06/08 12:06:18;;;;;;;;;4.00;2.00;;;;;;;;5031775;28;8882;-74
2022/06/08 12:08:47;;;;;;;;;3.00;2.00;;;;;;;;5035532;28;8879;-74
2022/06/08 12:11:17;;;;;;;;;2.00;2.00;;;;;;;;5028400;28;8871;-74
2022/06/08 12:13:54;;;;;;;;;2.00;2.00;;;;;;;;5031284;28;8908;-74
2022/06/08 12:16:27;;;;;;;;;3.00;2.00;;;;;;;;5035183;28;8870;-74
2022/06/08 12:18:57;;;;;;;;;3.00;3.00;;;;;;;;5034892;28;9016;-74
2022/06/08 12:21:34;;;;;;;;;2.00;2.00;;;;;;;;5038917;28;8878;-74
2022/06/08 12:24:31;;;;;;;;;3.00;2.20;;;;;;;;5027512;28;8920;-76
2022/06/08 12:27:14;;;;;;;;;3.60;2.20;;;;;;;;5038086;28;8862;-76
2022/06/08 12:29:50;;;;;;;;;3.60;2.00;;;;;;;;5025026;28;8859;-75
2022/06/08 12:32:24;;;;;;;;;1.80;1.80;;;;;;;;5039558;28;8807;-74
2022/06/08 12:34:53;;;;;;;;;1.80;1.80;;;;;;;;5037216;28;8863;-74
2022/06/08 12:37:33;;;;;;;;;5.00;2.00;;;;;;;;5032209;28;9705;-74
2022/06/08 12:40:17;;;;;;;;;4.00;1.20;;;;;;;;5041495;28;8858;-74
2022/06/08 12:42:47;;;;;;;;;1.20;1.20;;;;;;;;5027490;28;8880;-74
2022/06/08 12:45:26;;;;;;;;;2.80;2.80;;;;;;;;5033834;28;8952;-79
2022/06/08 12:47:54;;;;;;;;;1.20;1.20;;;;;;;;5031445;28;8898;-74
2022/06/08 12:50:25;;;;;;;;;1.80;1.80;;;;;;;;5036311;28;8981;-74
2022/06/08 12:52:53;;;;;;;;;1.00;1.00;;;;;;;;5038304;28;8889;-74
2022/06/08 12:55:23;;;;;;;;;3.40;2.00;;;;;;;;5030402;28;8855;-74
2022/06/08 12:57:51;;;;;;;;;3.20;1.80;;;;;;;;5037257;28;8918;-75
2022/06/08 13:00:21;;;;;;;;;1.20;1.00;;;;;;;;5029118;28;8871;-75
2022/06/08 13:02:50;;;;;;;;;4.40;2.80;;;;;;;;5036875;28;9682;-74
2022/06/08 13:05:22;;;;;;;;;4.00;4.00;;;;;;;;5036004;28;8846;-74
2022/06/08 13:07:51;;;;;;;;;4.20;4.20;;;;;;;;5036011;28;8861;-74
2022/06/08 13:10:18;;;;;;;;;3.80;3.80;;;;;;;;5034527;28;8958;-74
2022/06/08 13:12:53;;;;;;;;;4.80;4.80;;;;;;;;5033119;28;8886;-74
2022/06/08 13:15:22;;;;;;;;;3.40;2.80;;;;;;;;5033334;28;10249;-75
2022/06/08 13:17:50;;;;;;;;;4.20;4.20;;;;;;;;5028510;28;8870;-74
2022/06/08 13:20:23;;;;;;;;;3.00;3.00;;;;;;;;5033118;28;8883;-74
2022/06/08 13:22:51;;;;;;;;;4.20;3.00;;;;;;;;5033656;28;8893;-75
2022/06/08 13:25:21;;;;;;;;;3.20;2.80;;;;;;;;5035338;28;8878;-75
2022/06/08 13:27:50;;;;;;;;;2.00;2.00;;;;;;;;5037955;28;8847;-74
2022/06/08 13:30:19;;;;;;;;;3.60;3.60;;;;;;;;5033780;28;8989;-75
2022/06/08 13:32:48;;;;;;;;;2.00;2.00;;;;;;;;5032143;28;8881;-77
2022/06/08 13:35:15;;;;;;;;;4.80;3.00;;;;;;;;5030439;28;8870;-74
2022/06/08 13:37:46;;;;;;;;;2.00;2.00;;;;;;;;5034435;28;8871;-74
2022/06/08 13:40:16;;;;;;;;;1.60;1.60;;;;;;;;5038555;28;8867;-74
2022/06/08 13:42:44;;;;;;;;;2.00;2.00;;;;;;;;5037135;28;8873;-75
2022/06/08 13:45:15;;;;;;;;;3.80;2.20;;;;;;;;5033049;28;8901;-75
2022/06/08 13:47:43;;;;;;;;;1.00;1.00;;;;;;;;5028688;28;8873;-79
2022/06/08 13:50:27;;;;;;;;;1.00;1.00;;;;;;;;5038269;28;8921;-74
2022/06/08 13:52:57;;;;;;;;;1.20;0.40;;;;;;;;5038589;28;9632;-74
2022/06/08 13:55:27;;;;;;;;;0.00;0.00;;;;;;;;5033687;28;8874;-75
2022/06/08 13:57:55;;;;;;;;;1.40;1.40;;;;;;;;5036545;28;8942;-75
2022/06/08 14:00:24;;;;;;;;;2.00;2.00;;;;;;;;5033139;28;8939;-74
2022/06/08 14:02:54;;;;;;;;;2.00;2.00;;;;;;;;5035472;28;8988;-76
2022/06/08 14:13:42;;;;;;;;;3.00;1.00;;;;;;;;5035834;28;8847;-73
2022/06/08 14:16:10;;;;;;;;;0.80;0.80;;;;;;;;5035385;28;8890;-74
2022/06/08 14:18:40;;;;;;;;;3.20;2.00;;;;;;;;5036063;28;8854;-74
2022/06/08 14:21:08;;;;;;;;;0.00;0.00;;;;;;;;5034661;28;8992;-73
2022/06/08 14:23:41;;;;;;;;;0.60;0.60;;;;;;;;5034156;28;8962;-74
2022/06/08 14:26:12;;;;;;;;;1.00;1.00;;;;;;;;5031952;28;8889;-73
2022/06/08 14:28:40;;;;;;;;;1.00;1.00;;;;;;;;5033422;28;9313;-74
2022/06/08 14:31:10;;;;;;;;;1.00;1.00;;;;;;;;5031620;28;9620;-74
2022/06/08 14:33:38;;;;;;;;;0.80;0.80;;;;;;;;5034799;28;8889;-73
2022/06/08 14:36:06;;;;;;;;;1.80;1.80;;;;;;;;5032908;28;9019;-73
2022/06/08 14:38:40;;;;;;;;;1.00;1.00;;;;;;;;5031384;28;8865;-74
2022/06/08 14:41:08;;;;;;;;;1.80;1.80;;;;;;;;5031897;28;8971;-74
2022/06/08 14:43:36;;;;;;;;;2.80;2.00;;;;;;;;5035633;28;8911;-73
2022/06/08 14:46:04;;;;;;;;;1.00;1.00;;;;;;;;5036183;28;9773;-73
2022/06/08 14:48:37;;;;;;;;;2.00;2.00;;;;;;;;5026374;28;9442;-73
2022/06/08 14:51:05;;;;;;;;;2.00;2.00;;;;;;;;5033446;28;9656;-74
2022/06/08 14:53:32;;;;;;;;;2.00;2.00;;;;;;;;5034749;28;9378;-73
2022/06/08 14:58:49;;;;;;;;;1.20;1.20;;;;;;;;5028358;28;8857;-74
2022/06/08 15:01:20;;;;;;;;;0.60;0.40;;;;;;;;5030582;28;8810;-74
2022/06/08 15:03:48;;;;;;;;;0.80;0.80;;;;;;;;5027466;28;8889;-73
2022/06/08 15:06:15;;;;;;;;;2.40;0.60;;;;;;;;5035887;28;9601;-74
2022/06/08 15:08:46;;;;;;;;;1.00;1.00;;;;;;;;5034999;28;8871;-75
2022/06/08 15:14:06;;;;;;;;;3.40;1.20;;;;;;;;5033719;28;8850;-74
2022/06/08 15:16:34;;;;;;;;;2.00;2.00;;;;;;;;5027970;28;8866;-74
2022/06/08 15:19:01;;;;;;;;;1.00;1.00;;;;;;;;5029388;28;8960;-74
2022/06/08 15:21:29;;;;;;;;;2.00;2.00;;;;;;;;5027153;28;8971;-74
2022/06/08 15:23:56;;;;;;;;;2.00;2.00;;;;;;;;5031674;28;9690;-74
2022/06/08 15:26:25;;;;;;;;;1.40;1.40;;;;;;;;5029743;28;8886;-74
2022/06/08 15:28:52;;;;;;;;;3.00;2.00;;;;;;;;5032115;28;8933;-74
2022/06/08 15:31:22;;;;;;;;;0.00;0.00;;;;;;;;5030886;28;8962;-73
2022/06/08 15:33:49;;;;;;;;;4.00;2.40;;;;;;;;5022554;28;8877;-73
2022/06/08 15:36:19;;;;;;;;;1.40;1.40;;;;;;;;5033089;28;8902;-73
2022/06/08 15:38:48;;;;;;;;;2.20;1.00;;;;;;;;5029788;28;9720;-73
2022/06/08 15:41:15;;;;;;;;;3.00;2.00;;;;;;;;5028754;28;9866;-73
2022/06/08 15:43:46;;;;;;;;;1.80;1.80;;;;;;;;5031707;28;8869;-73
2022/06/08 15:46:13;;;;;;;;;1.00;1.00;;;;;;;;5030633;28;8894;-73
2022/06/08 15:48:41;;;;;;;;;1.00;1.00;;;;;;;;5030910;28;8889;-73
2022/06/08 15:51:13;;;;;;;;;2.20;1.00;;;;;;;;5030128;28;8845;-72